This is the latest recevied weather packets stored in our database for station/object OE-11051. If no packets are shown the sender has not sent any weather packets the latest 10 day(s).
| Time | Temp. | Humidity | Pressure | Rain* | Wind** | Luminosity | Snow |
|---|---|---|---|---|---|---|---|
| 1788143706 | 18.33° C | 92% | 1014.1 hPa | 0 mm | - | 0 W/m² | - |
| 1788143106 | 18.33° C | 91% | 1014.2 hPa | 0 mm | - | 0 W/m² | - |
| 1788142279 | 18.33° C | 90% | 1014.2 hPa | 0 mm | - | 0 W/m² | - |
| 1788141907 | 18.33° C | 90% | 1014.2 hPa | 0.51 mm | - | 0 W/m² | - |
| 1788141307 | 18.89° C | 90% | 1014.2 hPa | 1.02 mm | - | 0 W/m² | - |
| 1788140480 | 18.33° C | 90% | 1014.4 hPa | 1.02 mm | - | 0 W/m² | - |
| 1788140107 | 18.33° C | 91% | 1014.4 hPa | 1.02 mm | - | 0 W/m² | - |
| 1788139507 | 18.89° C | 90% | 1014.5 hPa | 1.02 mm | - | 0 W/m² | - |
| 1788138679 | 18.89° C | 88% | 1014.7 hPa | 1.02 mm | - | 0 W/m² | - |
| 1788138307 | 19.44° C | 86% | 1014.3 hPa | 1.02 mm | - | 0 W/m² | - |
| 1788137707 | 20° C | 84% | 1014.5 hPa | 0.51 mm | - | 0 W/m² | - |
| 1788136879 | 20° C | 81% | 1014.6 hPa | 0 mm | - | 0 W/m² | - |
| 1788136507 | 20.56° C | 76% | 1014.5 hPa | 0 mm | - | 0 W/m² | - |
| 1788135907 | 19.44° C | 78% | 1014.9 hPa | 0 mm | - | 0 W/m² | - |
| 1788135080 | 19.44° C | 80% | 1015 hPa | 0 mm | - | 0 W/m² | - |
| 1788134707 | 20° C | 76% | 1014.8 hPa | 0 mm | - | 0 W/m² | - |
| 1788134107 | 19.44° C | 77% | 1014.7 hPa | 0 mm | - | 0 W/m² | - |
| 1788133518 | 19.44° C | 80% | 1015 hPa | 0 mm | - | 0 W/m² | - |
| 1788132906 | 19.44° C | 80% | 1014.7 hPa | 0 mm | - | 0 W/m² | - |
| 1788132306 | 19.44° C | 81% | 1014.9 hPa | 0 mm | - | 0 W/m² | - |
| 1788131707 | 19.44° C | 82% | 1015 hPa | 0 mm | - | 0 W/m² | - |
| 1788131107 | 19.44° C | 82% | 1015.1 hPa | 0 mm | - | 0 W/m² | - |
| 1788130507 | 20° C | 78% | 1015 hPa | 0 mm | - | 0 W/m² | - |
| 1788129680 | 20.56° C | 74% | 1014.8 hPa | 0 mm | - | 0 W/m² | - |
| 1788129307 | 20.56° C | 71% | 1014.5 hPa | 0 mm | - | 0 W/m² | - |
* Rain latest hour (hover to see other rain measurements)
** Current wind speed in m/s (hover to see current wind gust speed)